KISO/ISO METAR and TAF weather

Enter ICAO airport designator
Station Type Date Time Source
KISO METAR 2019/06/16 11:56 UTC NOAA

KISO 161156Z 22006KT 10SM CLR 22/19 A3009


Station Type Date Time Source
KISO Decoded METAR 2019/06/16 11:56 UTC NOAA

Kinston, Kinston Regional Jetport at Stallings Field, NC, United States (KISO) 35-20N 077-37W
Jun 16, 2019 - 07:56 AM EDT / 2019.06.16 1156 UTC
Wind: from the SW (220 degrees) at 7 MPH (6 KT):0
Visibility: 10 mile(s):0
Sky conditions: clear
Temperature: 71 F (22 C)
Dew Point: 66 F (19 C)
Relative Humidity: 83%
Pressure (altimeter): 30.09 in. Hg (1018 hPa)
ob: KISO 161156Z 22006KT 10SM CLR 22/19 A3009
cycle: 12

Station Type Date Time Source
KISO TAF 2019/06/16 12:28 UTC NOAA

TAF KISO 161126Z 1612/1712 22005KT P6SM SCT250
FM161800 22010G15KT P6SM FEW250
FM162300 20010KT P6SM FEW250
FM170200 22005KT P6SM FEW250
AMD LTD TO CLD VIS AND WIND

Example: see airport list